^^
Station Historical Data
Daily Summary for May 3, 2019 Units:  English    Metric   Both
« Previous Day
Next Day »
Daily Weekly Monthly Yearly Custom
  High: Low: Average:
Temperature: 62.4 °F 38 °F 50.8 °F
Dew Point: 42 °F 17.1 °F 32.4 °F
Humidity: 94% 19% 56%
Wind Speed: 18mph 0mph 7.6mph
Wind Gust: 23mph - -
Wind- - WSW
Pressure: 29.86 in 29.75 in -
Precipitation: 0 in    
Historical Graphs
 
 
Tabular Data for May 3, 2019
Time Temperature Dew Point Pressure Wind Wind Speed Wind Gust Humidity Rainfall Rate (Hourly) solar Conditions
00:04 46.7 °F 41.5 °F 29.84 in SSE 12 mph 14 mph 82% 0.02 in 0.00 W/m2
00:09 46.5 °F 41.3 °F 29.84 in South 7 mph 14 mph 82% 0.02 in 0.00 W/m2
00:14 46.4 °F 41.8 °F 29.84 in SSE 6 mph 12 mph 84% 0.02 in 0.00 W/m2
00:19 46.3 °F 41.7 °F 29.84 in SE 11 mph 12 mph 84% 0.02 in 0.00 W/m2
00:24 46.3 °F 42 °F 29.84 in SSE 12 mph 14 mph 85% 0.01 in 0.00 W/m2
00:29 46.1 °F 41.8 °F 29.83 in SE 9 mph 14 mph 85% 0.01 in 0.00 W/m2
00:34 45.8 °F 41.9 °F 29.82 in SE 7 mph 16 mph 86% 0.01 in 0.00 W/m2
00:39 45.6 °F 41.7 °F 29.83 in SSE 8 mph 16 mph 86% 0.01 in 0.00 W/m2
00:44 45.5 °F 41.9 °F 29.83 in SE 8 mph 13 mph 87% 0 in 0.00 W/m2
00:49 45.3 °F 41.7 °F 29.83 in SE 7 mph 12 mph 87% 0 in 0.00 W/m2
00:54 45.1 °F 41.5 °F 29.83 in ESE 11 mph 12 mph 87% 0 in 0.00 W/m2
00:59 44.9 °F 41.3 °F 29.83 in SE 9 mph 12 mph 87% 0 in 0.00 W/m2
01:04 44.6 °F 41 °F 29.84 in SE 5 mph 11 mph 87% 0 in 0.00 W/m2
01:09 44.5 °F 41.2 °F 29.84 in SE 6 mph 10 mph 88% 0 in 0.00 W/m2
01:14 44.3 °F 41 °F 29.84 in SE 6 mph 10 mph 88% 0 in 0.00 W/m2
01:19 44.3 °F 41.3 °F 29.84 in SSE 8 mph 10 mph 89% 0 in 0.00 W/m2
01:24 44.4 °F 41.1 °F 29.83 in SE 7 mph 12 mph 88% 0 in 0.00 W/m2
01:29 44.5 °F 41.2 °F 29.83 in SE 9 mph 12 mph 88% 0 in 0.00 W/m2
01:34 44.7 °F 41.1 °F 29.82 in ESE 7 mph 10 mph 87% 0 in 0.00 W/m2
01:39 44.7 °F 41.1 °F 29.82 in East 7 mph 10 mph 87% 0 in 0.00 W/m2
01:44 44.7 °F 40.8 °F 29.82 in SE 8 mph 10 mph 86% 0 in 0.00 W/m2
01:49 44.7 °F 40.8 °F 29.82 in East 7 mph 10 mph 86% 0 in 0.00 W/m2
01:54 44.8 °F 40.9 °F 29.82 in ESE 9 mph 11 mph 86% 0 in 0.00 W/m2
01:59 44.9 °F 41 °F 29.82 in SE 6 mph 12 mph 86% 0 in 0.00 W/m2
02:04 44.7 °F 40.5 °F 29.82 in ESE 8 mph 12 mph 85% 0 in 0.00 W/m2
02:09 44.6 °F 40.7 °F 29.82 in ESE 9 mph 12 mph 86% 0 in 0.00 W/m2
02:14 44.4 °F 40.5 °F 29.82 in SE 6 mph 12 mph 86% 0 in 0.00 W/m2
02:19 44.2 °F 40.3 °F 29.82 in SE 6 mph 11 mph 86% 0 in 0.00 W/m2
02:24 43.9 °F 40 °F 29.82 in SE 8 mph 10 mph 86% 0 in 0.00 W/m2
02:29 43.9 °F 40.3 °F 29.81 in SE 8 mph 11 mph 87% 0 in 0.00 W/m2
02:34 44.1 °F 40.5 °F 29.81 in SE 6 mph 12 mph 87% 0 in 0.00 W/m2
02:39 44.3 °F 40.4 °F 29.81 in SE 10 mph 12 mph 86% 0 in 0.00 W/m2
02:44 44.3 °F 40.4 °F 29.81 in SSE 9 mph 12 mph 86% 0 in 0.00 W/m2
02:49 44.2 °F 40.3 °F 29.81 in SSE 7 mph 12 mph 86% 0 in 0.00 W/m2
02:54 44 °F 39.8 °F 29.81 in SE 8 mph 13 mph 85% 0 in 0.00 W/m2
02:59 43.8 °F 39.9 °F 29.81 in SSE 7 mph 13 mph 86% 0 in 0.00 W/m2
03:04 43.7 °F 39.8 °F 29.81 in SE 6 mph 10 mph 86% 0 in 0.00 W/m2
03:09 43.4 °F 39.5 °F 29.81 in South 6 mph 10 mph 86% 0 in 0.00 W/m2
03:14 43.2 °F 39.3 °F 29.81 in SSE 4 mph 9 mph 86% 0 in 0.00 W/m2
03:19 43.1 °F 39.2 °F 29.81 in SSE 7 mph 9 mph 86% 0 in 0.00 W/m2
03:24 43 °F 39.1 °F 29.82 in SE 4 mph 8 mph 86% 0 in 0.00 W/m2
03:29 42.8 °F 38.9 °F 29.82 in SE 3 mph 7 mph 86% 0 in 0.00 W/m2
03:34 42.7 °F 39.1 °F 29.82 in Calm   6 mph 87% 0 in 0.00 W/m2
03:39 42.5 °F 38.9 °F 29.82 in Calm   4 mph 87% 0 in 0.00 W/m2
03:44 42.4 °F 38.8 °F 29.82 in SE 2 mph 3 mph 87% 0 in 0.00 W/m2
03:49 42.2 °F 38.6 °F 29.82 in SE 4 mph 4 mph 87% 0 in 0.00 W/m2
03:54 42 °F 38.4 °F 29.81 in SE 3 mph 4 mph 87% 0 in 0.00 W/m2
03:59 42 °F 38.7 °F 29.82 in SSE 3 mph 4 mph 88% 0 in 0.00 W/m2
04:04 42 °F 38.7 °F 29.81 in SSE 3 mph 4 mph 88% 0 in 0.00 W/m2
04:09 42 °F 38.7 °F 29.81 in South 1 mph 4 mph 88% 0 in 0.00 W/m2
04:14 42 °F 38.7 °F 29.81 in South 2 mph 4 mph 88% 0 in 0.00 W/m2
04:19 42 °F 38.7 °F 29.82 in South 2 mph 3 mph 88% 0 in 0.00 W/m2
04:24 42 °F 39 °F 29.81 in Calm   2 mph 89% 0 in 0.00 W/m2
04:29 42 °F 39 °F 29.81 in Calm   2 mph 89% 0 in 0.00 W/m2
04:34 42 °F 39 °F 29.82 in Calm   1 mph 89% 0 in 0.00 W/m2
04:39 42 °F 39 °F 29.82 in Calm   1 mph 89% 0 in 0.00 W/m2
04:44 42 °F 39 °F 29.82 in South 1 mph 1 mph 89% 0 in 0.00 W/m2
04:49 42.1 °F 39.1 °F 29.82 in South 1 mph 1 mph 89% 0 in 0.00 W/m2
04:54 42.3 °F 39.3 °F 29.82 in Calm   1 mph 89% 0 in 0.00 W/m2
04:59 42.2 °F 39.2 °F 29.82 in Calm   1 mph 89% 0 in 0.00 W/m2
05:04 42.2 °F 39.2 °F 29.82 in Calm     89% 0 in 0.00 W/m2
05:09 42.3 °F 39.3 °F 29.82 in Calm     89% 0 in 0.00 W/m2
05:14 42.3 °F 39.3 °F 29.82 in Calm   1 mph 89% 0 in 0.00 W/m2
05:19 42.2 °F 39.2 °F 29.82 in Calm   1 mph 89% 0 in 0.00 W/m2
05:24 42.3 °F 39.3 °F 29.81 in Calm     89% 0 in 0.00 W/m2
05:29 42.4 °F 39.4 °F 29.81 in South 1 mph 2 mph 89% 0 in 0.00 W/m2
05:34 42.3 °F 39.3 °F 29.82 in South 1 mph 2 mph 89% 0 in 0.00 W/m2
05:39 42.2 °F 38.9 °F 29.82 in North 4 mph 4 mph 88% 0 in 0.00 W/m2
05:44 41.7 °F 38.4 °F 29.82 in Calm   5 mph 88% 0 in 0.00 W/m2
05:49 41.4 °F 38.1 °F 29.82 in North 1 mph 5 mph 88% 0 in 0.00 W/m2
05:54 41 °F 37.7 °F 29.82 in Calm   2 mph 88% 0 in 0.00 W/m2
05:59 40.8 °F 37.8 °F 29.82 in Calm   2 mph 89% 0 in 0.00 W/m2
06:04 40.6 °F 37.6 °F 29.82 in North 2 mph 2 mph 89% 0 in 0.00 W/m2
06:09 40.5 °F 37.8 °F 29.82 in North 1 mph 2 mph 90% 0 in 0.00 W/m2
06:14 40.4 °F 37.7 °F 29.82 in North 2 mph 2 mph 90% 0 in 0.00 W/m2
06:19 40.2 °F 37.5 °F 29.82 in North 2 mph 2 mph 90% 0 in 0.00 W/m2
06:24 40.1 °F 37.7 °F 29.82 in North 1 mph 2 mph 91% 0 in 0.00 W/m2
06:29 40 °F 37.6 °F 29.82 in North 2 mph 2 mph 91% 0 in 5.00 W/m2
06:34 39.9 °F 37.5 °F 29.82 in North 2 mph 2 mph 91% 0 in 7.00 W/m2
06:39 39.9 °F 37.5 °F 29.82 in North 2 mph 2 mph 91% 0 in 9.00 W/m2
06:44 39.9 °F 37.8 °F 29.82 in North 1 mph 3 mph 92% 0 in 11.00 W/m2
06:49 39.9 °F 37.8 °F 29.82 in SW 2 mph 4 mph 92% 0 in 14.00 W/m2
06:54 39.9 °F 37.8 °F 29.82 in WSW 2 mph 4 mph 92% 0 in 16.00 W/m2
06:59 40.1 °F 38 °F 29.82 in WSW 3 mph 4 mph 92% 0 in 19.00 W/m2
07:04 40 °F 37.9 °F 29.82 in WSW 3 mph 4 mph 92% 0 in 21.00 W/m2
07:09 40 °F 37.9 °F 29.82 in WSW 3 mph 4 mph 92% 0 in 25.00 W/m2
07:14 39.9 °F 37.8 °F 29.83 in West 6 mph 6 mph 92% 0 in 28.00 W/m2
07:19 39.7 °F 37.6 °F 29.83 in West 5 mph 7 mph 92% 0 in 32.00 W/m2
07:24 39.8 °F 37.7 °F 29.83 in West 6 mph 8 mph 92% 0 in 33.00 W/m2
07:29 39 °F 36.6 °F 29.83 in West 7 mph 9 mph 91% 0 in 37.00 W/m2
07:34 38.1 °F 36 °F 29.83 in WNW 6 mph 9 mph 92% 0 in 39.00 W/m2
07:39 38 °F 36.2 °F 29.84 in WNW 8 mph 9 mph 93% 0 in 40.00 W/m2
07:44 38.3 °F 36.5 °F 29.84 in WNW 3 mph 8 mph 93% 0 in 42.00 W/m2
07:49 38.8 °F 37.2 °F 29.84 in NW 4 mph 7 mph 94% 0 in 42.00 W/m2
07:54 39.2 °F 37.6 °F 29.84 in NW 5 mph 7 mph 94% 0 in 172.00 W/m2
07:59 39.9 °F 38.3 °F 29.84 in NW 5 mph 8 mph 94% 0 in 185.00 W/m2
08:04 40.5 °F 38.6 °F 29.84 in NW 12 mph 16 mph 93% 0 in 209.00 W/m2
08:09 41.1 °F 38.4 °F 29.84 in NW 10 mph 16 mph 90% 0 in 206.00 W/m2
08:14 41.7 °F 38.7 °F 29.84 in NW 12 mph 15 mph 89% 0 in 211.00 W/m2
08:19 41.8 °F 38.2 °F 29.85 in NW 8 mph 15 mph 87% 0 in 181.00 W/m2
08:24 42.2 °F 38.9 °F 29.85 in NNW 10 mph 15 mph 88% 0 in 269.00 W/m2
08:29 42.6 °F 39 °F 29.85 in NNW 7 mph 13 mph 87% 0 in 292.00 W/m2
08:34 42.8 °F 39.2 °F 29.85 in NW 7 mph 13 mph 87% 0 in 304.00 W/m2
08:39 43 °F 39.1 °F 29.85 in NNW 6 mph 13 mph 86% 0 in 213.00 W/m2
08:44 43.1 °F 39.2 °F 29.85 in NW 6 mph 12 mph 86% 0 in 288.00 W/m2
08:49 43.4 °F 39.2 °F 29.85 in NNW 9 mph 10 mph 85% 0 in 302.00 W/m2
08:54 43.6 °F 39.1 °F 29.85 in NW 9 mph 12 mph 84% 0 in 346.00 W/m2
08:59 44.1 °F 39.6 °F 29.85 in NW 9 mph 12 mph 84% 0 in 364.00 W/m2
09:04 44.4 °F 39.6 °F 29.85 in NW 7 mph 11 mph 83% 0 in 380.00 W/m2
09:09 44.8 °F 39.6 °F 29.85 in NW 6 mph 11 mph 82% 0 in 401.00 W/m2
09:14 45.5 °F 40.3 °F 29.85 in NW 7 mph 11 mph 82% 0 in 420.00 W/m2
09:19 45.9 °F 39.8 °F 29.85 in NNW 7 mph 12 mph 79% 0 in 441.00 W/m2
09:24 46.4 °F 39.6 °F 29.85 in NW 6 mph 15 mph 77% 0 in 459.00 W/m2
09:29 46.9 °F 39.4 °F 29.85 in NW 12 mph 16 mph 75% 0 in 480.00 W/m2
09:34 46.8 °F 38.6 °F 29.85 in NW 7 mph 16 mph 73% 0 in 499.00 W/m2
09:39 47.2 °F 39 °F 29.85 in NW 15 mph 18 mph 73% 0 in 520.00 W/m2
09:44 47.2 °F 37.9 °F 29.85 in NW 14 mph 18 mph 70% 0 in 536.00 W/m2
09:49 47.2 °F 38.3 °F 29.85 in NW 14 mph 18 mph 71% 0 in 550.00 W/m2
09:54 47.8 °F 38.5 °F 29.85 in NW 11 mph 18 mph 70% 0 in 566.00 W/m2
09:59 47.8 °F 38.5 °F 29.85 in WNW 12 mph 17 mph 70% 0 in 577.00 W/m2
10:04 48.1 °F 38.4 °F 29.85 in WNW 12 mph 18 mph 69% 0 in 592.00 W/m2
10:09 47.9 °F 38.2 °F 29.85 in NW 10 mph 18 mph 69% 0 in 603.00 W/m2
10:14 48.2 °F 38.5 °F 29.85 in NW 15 mph 18 mph 69% 0 in 619.00 W/m2
10:19 48.3 °F 39 °F 29.85 in NW 12 mph 20 mph 70% 0 in 631.00 W/m2
10:24 48.6 °F 38.5 °F 29.85 in NW 11 mph 20 mph 68% 0 in 645.00 W/m2
10:29 48.2 °F 38.1 °F 29.85 in NW 11 mph 20 mph 68% 0 in 657.00 W/m2
10:34 48.6 °F 39.3 °F 29.85 in NW 15 mph 17 mph 70% 0 in 663.00 W/m2
10:39 49 °F 38.1 °F 29.85 in WNW 9 mph 18 mph 66% 0 in 684.00 W/m2
10:44 49.2 °F 37.9 °F 29.85 in WNW 11 mph 18 mph 65% 0 in 693.00 W/m2
10:49 49.8 °F 39.7 °F 29.85 in NW 10 mph 15 mph 68% 0 in 707.00 W/m2
10:54 50.4 °F 37.9 °F 29.85 in WNW 13 mph 15 mph 62% 0 in 703.00 W/m2
10:59 50.1 °F 38.4 °F 29.85 in NW 11 mph 15 mph 64% 0 in 679.00 W/m2
11:04 50.3 °F 38.2 °F 29.85 in NW 11 mph 15 mph 63% 0 in 647.00 W/m2
11:09 50.6 °F 36.8 °F 29.85 in NW 8 mph 16 mph 59% 0 in 621.00 W/m2
11:14 50.9 °F 32.4 °F 29.85 in WNW 12 mph 17 mph 49% 0 in 610.00 W/m2
11:19 51 °F 34 °F 29.85 in WNW 9 mph 17 mph 52% 0 in 605.00 W/m2
11:24 51.4 °F 36.2 °F 29.85 in WNW 9 mph 19 mph 56% 0 in 629.00 W/m2
11:29 51.7 °F 36.9 °F 29.85 in WNW 14 mph 19 mph 57% 0 in 668.00 W/m2
11:34 51.8 °F 36.1 °F 29.85 in WNW 16 mph 17 mph 55% 0 in 731.00 W/m2
11:39 52.1 °F 35 °F 29.85 in WNW 10 mph 17 mph 52% 0 in 772.00 W/m2
11:44 52.1 °F 33.5 °F 29.85 in WNW 12 mph 21 mph 49% 0 in 807.00 W/m2
11:49 52.2 °F 34.1 °F 29.86 in West 14 mph 21 mph 50% 0 in 823.00 W/m2
11:54 53 °F 32.8 °F 29.86 in WNW 17 mph 19 mph 46% 0 in 831.00 W/m2
11:59 53.7 °F 30.5 °F 29.86 in WNW 12 mph 19 mph 41% 0 in 842.00 W/m2
12:04 53.2 °F 28.9 °F 29.86 in West 16 mph 18 mph 39% 0 in 851.00 W/m2
12:09 53.1 °F 26.8 °F 29.86 in WNW 13 mph 18 mph 36% 0 in 854.00 W/m2
12:14 53.2 °F 26.2 °F 29.86 in NW 9 mph 18 mph 35% 0 in 861.00 W/m2
12:19 53.7 °F 26.7 °F 29.86 in WNW 11 mph 19 mph 35% 0 in 867.00 W/m2
12:24 54.2 °F 27.1 °F 29.86 in West 12 mph 19 mph 35% 0 in 875.00 W/m2
12:29 54.5 °F 28.1 °F 29.86 in West 12 mph 23 mph 36% 0 in 881.00 W/m2
12:34 54.1 °F 25.6 °F 29.86 in West 18 mph 23 mph 33% 0 in 886.00 W/m2
12:39 54.1 °F 26.3 °F 29.86 in WNW 10 mph 21 mph 34% 0 in 891.00 W/m2
12:44 54.2 °F 25.7 °F 29.86 in WNW 9 mph 21 mph 33% 0 in 895.00 W/m2
12:49 54.3 °F 25.8 °F 29.86 in West 10 mph 15 mph 33% 0 in 902.00 W/m2
12:54 54.7 °F 24.6 °F 29.86 in NW 18 mph 19 mph 31% 0 in 905.00 W/m2
12:59 54.8 °F 23.1 °F 29.85 in NW 10 mph 19 mph 29% 0 in 911.00 W/m2
13:04 54.9 °F 22.4 °F 29.85 in West 8 mph 18 mph 28% 0 in 914.00 W/m2
13:09 54.9 °F 21.5 °F 29.85 in WNW 7 mph 23 mph 27% 0 in 918.00 W/m2
13:14 55.3 °F 23.5 °F 29.85 in NW 15 mph 23 mph 29% 0 in 919.00 W/m2
13:19 55.3 °F 22.7 °F 29.85 in West 13 mph 21 mph 28% 0 in 919.00 W/m2
13:24 55.9 °F 24.9 °F 29.85 in West 16 mph 19 mph 30% 0 in 926.00 W/m2
13:29 56.4 °F 21 °F 29.85 in WNW 12 mph 19 mph 25% 0 in 928.00 W/m2
13:34 56.2 °F 22.6 °F 29.85 in WNW 11 mph 17 mph 27% 0 in 926.00 W/m2
13:39 56.4 °F 22.8 °F 29.85 in WNW 7 mph 17 mph 27% 0 in 925.00 W/m2
13:44 57 °F 25 °F 29.84 in WNW 18 mph 19 mph 29% 0 in 928.00 W/m2
13:49 56.8 °F 22.2 °F 29.85 in NW 10 mph 19 mph 26% 0 in 928.00 W/m2
13:54 56.7 °F 22.2 °F 29.84 in NW 11 mph 19 mph 26% 0 in 923.00 W/m2
13:59 56.6 °F 22.1 °F 29.84 in NW 12 mph 19 mph 26% 0 in 921.00 W/m2
14:04 56.9 °F 23.2 °F 29.84 in West 9 mph 17 mph 27% 0 in 925.00 W/m2
14:09 57.6 °F 22 °F 29.84 in NNW 13 mph 19 mph 25% 0 in 923.00 W/m2
14:14 57.8 °F 21.2 °F 29.84 in NNW 12 mph 19 mph 24% 0 in 919.00 W/m2
14:19 57.9 °F 20.3 °F 29.84 in West 8 mph 18 mph 23% 0 in 923.00 W/m2
14:24 57.4 °F 21.8 °F 29.84 in West 9 mph 18 mph 25% 0 in 918.00 W/m2
14:29 57.5 °F 17.8 °F 29.84 in NW 8 mph 17 mph 21% 0 in 914.00 W/m2
14:34 57.3 °F 18.7 °F 29.84 in NW 8 mph 19 mph 22% 0 in 909.00 W/m2
14:39 58.4 °F 22.7 °F 29.84 in WNW 12 mph 19 mph 25% 0 in 905.00 W/m2
14:44 58.5 °F 23.7 °F 29.84 in WSW 12 mph 16 mph 26% 0 in 900.00 W/m2
14:49 58.8 °F 25.7 °F 29.84 in WSW 11 mph 17 mph 28% 0 in 895.00 W/m2
14:54 58.9 °F 24.9 °F 29.84 in WSW 13 mph 17 mph 27% 0 in 889.00 W/m2
14:59 59.2 °F 22.4 °F 29.84 in West 12 mph 18 mph 24% 0 in 884.00 W/m2
15:04 58.8 °F 20 °F 29.84 in WNW 9 mph 18 mph 22% 0 in 881.00 W/m2
15:09 58.6 °F 18.7 °F 29.84 in WNW 8 mph 15 mph 21% 0 in 870.00 W/m2
15:14 58.6 °F 21.9 °F 29.84 in WNW 12 mph 15 mph 24% 0 in 868.00 W/m2
15:19 58.6 °F 23.8 °F 29.84 in West 3 mph 15 mph 26% 0 in 861.00 W/m2
15:24 58.9 °F 23.1 °F 29.84 in WNW 14 mph 14 mph 25% 0 in 854.00 W/m2
15:29 59.2 °F 18.1 °F 29.84 in West 6 mph 14 mph 20% 0 in 846.00 W/m2
15:34 58.9 °F 21.1 °F 29.83 in West 11 mph 14 mph 23% 0 in 838.00 W/m2
15:39 59.5 °F 19.5 °F 29.83 in NNW 9 mph 12 mph 21% 0 in 833.00 W/m2
15:44 59.5 °F 19.5 °F 29.83 in NW 4 mph 13 mph 21% 0 in 821.00 W/m2
15:49 59.5 °F 17.1 °F 29.83 in WNW 8 mph 17 mph 19% 0 in 814.00 W/m2
15:54 59.6 °F 21.7 °F 29.83 in West 7 mph 17 mph 23% 0 in 803.00 W/m2
15:59 59.7 °F 20.7 °F 29.83 in NW 10 mph 16 mph 22% 0 in 796.00 W/m2
16:04 59.6 °F 19.6 °F 29.82 in West 6 mph 16 mph 21% 0 in 786.00 W/m2
16:09 59.5 °F 22.6 °F 29.82 in WNW 4 mph 16 mph 24% 0 in 777.00 W/m2
16:14 59.6 °F 22.7 °F 29.82 in WNW 4 mph 13 mph 24% 0 in 770.00 W/m2
16:19 60.4 °F 23.4 °F 29.82 in WSW 8 mph 16 mph 24% 0 in 758.00 W/m2
16:24 60.8 °F 24.7 °F 29.82 in West 14 mph 16 mph 25% 0 in 747.00 W/m2
16:29 60.7 °F 22.6 °F 29.82 in WNW 13 mph 15 mph 23% 0 in 735.00 W/m2
16:34 60.3 °F 21.2 °F 29.81 in West 11 mph 15 mph 22% 0 in 724.00 W/m2
16:39 60.6 °F 23.6 °F 29.81 in WSW 6 mph 13 mph 24% 0 in 712.00 W/m2
16:44 60.8 °F 23.7 °F 29.81 in WSW 12 mph 18 mph 24% 0 in 700.00 W/m2
16:49 60.8 °F 21.7 °F 29.81 in WNW 6 mph 18 mph 22% 0 in 689.00 W/m2
16:54 61 °F 23.9 °F 29.81 in WSW 12 mph 16 mph 24% 0 in 677.00 W/m2
16:59 61 °F 23.9 °F 29.81 in WSW 9 mph 16 mph 24% 0 in 663.00 W/m2
17:04 61.5 °F 28.1 °F 29.80 in SW 7 mph 14 mph 28% 0 in 647.00 W/m2
17:09 61.5 °F 25.3 °F 29.80 in WSW 6 mph 16 mph 25% 0 in 636.00 W/m2
17:14 61.2 °F 26 °F 29.80 in WSW 9 mph 16 mph 26% 0 in 622.00 W/m2
17:19 61.6 °F 26.3 °F 29.80 in West 12 mph 17 mph 26% 0 in 608.00 W/m2
17:24 61.6 °F 26.3 °F 29.80 in West 11 mph 17 mph 26% 0 in 596.00 W/m2
17:29 61.6 °F 27.3 °F 29.80 in WNW 17 mph 17 mph 27% 0 in 582.00 W/m2
17:34 61.7 °F 25.5 °F 29.80 in West 4 mph 17 mph 25% 0 in 566.00 W/m2
17:39 61.5 °F 25.3 °F 29.80 in NW 7 mph 17 mph 25% 0 in 550.00 W/m2
17:44 61.8 °F 27.4 °F 29.79 in West 12 mph 14 mph 27% 0 in 536.00 W/m2
17:49 61.6 °F 27.3 °F 29.79 in West 9 mph 18 mph 27% 0 in 522.00 W/m2
17:54 61.7 °F 29.1 °F 29.79 in WSW 9 mph 18 mph 29% 0 in 510.00 W/m2
17:59 61.9 °F 24.7 °F 29.79 in West 12 mph 15 mph 24% 0 in 496.00 W/m2
18:04 62 °F 24.8 °F 29.79 in SW 4 mph 15 mph 24% 0 in 480.00 W/m2
18:09 62.2 °F 25.9 °F 29.79 in WSW 10 mph 14 mph 25% 0 in 462.00 W/m2
18:14 62 °F 25.7 °F 29.79 in WSW 10 mph 20 mph 25% 0 in 450.00 W/m2
18:19 62 °F 24.8 °F 29.79 in SW 8 mph 20 mph 24% 0 in 431.00 W/m2
18:24 62.1 °F 27.7 °F 29.79 in West 10 mph 16 mph 27% 0 in 415.00 W/m2
18:29 62.1 °F 26.8 °F 29.79 in West 11 mph 22 mph 26% 0 in 401.00 W/m2
18:34 61.9 °F 27.5 °F 29.78 in WSW 11 mph 22 mph 27% 0 in 387.00 W/m2
18:39 61.9 °F 29.3 °F 29.78 in WSW 9 mph 15 mph 29% 0 in 371.00 W/m2
18:44 62 °F 27.6 °F 29.78 in West 6 mph 15 mph 27% 0 in 353.00 W/m2
18:49 62.1 °F 27.7 °F 29.78 in SW 5 mph 13 mph 27% 0 in 341.00 W/m2
18:54 62.4 °F 27.9 °F 29.78 in WSW 3 mph 13 mph 27% 0 in 322.00 W/m2
18:59 62.4 °F 27.9 °F 29.78 in West 8 mph 13 mph 27% 0 in 304.00 W/m2
19:04 62.2 °F 28.7 °F 29.78 in WSW 14 mph 15 mph 28% 0 in 290.00 W/m2
19:09 61.9 °F 28.4 °F 29.78 in WSW 7 mph 15 mph 28% 0 in 272.00 W/m2
19:14 61.9 °F 27.5 °F 29.77 in WSW 9 mph 15 mph 27% 0 in 253.00 W/m2
19:19 62 °F 26.7 °F 29.77 in WSW 8 mph 13 mph 26% 0 in 234.00 W/m2
19:24 62 °F 26.7 °F 29.77 in SW 8 mph 14 mph 26% 0 in 213.00 W/m2
19:29 62.1 °F 27.7 °F 29.77 in SW 13 mph 17 mph 27% 0 in 193.00 W/m2
19:34 61.8 °F 26.5 °F 29.77 in WSW 6 mph 17 mph 26% 0 in 172.00 W/m2
19:39 61.6 °F 28.1 °F 29.77 in WSW 7 mph 13 mph 28% 0 in 156.00 W/m2
19:44 61.6 °F 26.3 °F 29.77 in SW 4 mph 13 mph 26% 0 in 137.00 W/m2
19:49 61.5 °F 27.2 °F 29.77 in WSW 5 mph 11 mph 27% 0 in 120.00 W/m2
19:54 61.7 °F 29.1 °F 29.77 in SW 4 mph 11 mph 29% 0 in 104.00 W/m2
19:59 61.6 °F 28.1 °F 29.77 in SSW 6 mph 9 mph 28% 0 in 88.00 W/m2
20:04 61.3 °F 28.7 °F 29.77 in SSW 5 mph 9 mph 29% 0 in 74.00 W/m2
20:09 61.1 °F 28.6 °F 29.77 in SSW 4 mph 8 mph 29% 0 in 60.00 W/m2
20:14 60.8 °F 29.1 °F 29.77 in SSW 6 mph 7 mph 30% 0 in 49.00 W/m2
20:19 60.4 °F 29.6 °F 29.76 in SSW 6 mph 8 mph 31% 0 in 39.00 W/m2
20:24 60.1 °F 29.3 °F 29.77 in SSW 5 mph 8 mph 31% 0 in 30.00 W/m2
20:29 59.5 °F 29.6 °F 29.77 in SSW 5 mph 7 mph 32% 0 in 21.00 W/m2
20:34 58.8 °F 29 °F 29.77 in South 4 mph 8 mph 32% 0 in 18.00 W/m2
20:39 57.9 °F 28.9 °F 29.76 in South 5 mph 9 mph 33% 0 in 14.00 W/m2
20:44 57.1 °F 29 °F 29.76 in South 5 mph 9 mph 34% 0 in 12.00 W/m2
20:49 56.7 °F 28.6 °F 29.76 in South 7 mph 9 mph 34% 0 in 9.00 W/m2
20:54 56.2 °F 28.2 °F 29.76 in South 7 mph 9 mph 34% 0 in 7.00 W/m2
20:59 55.7 °F 28.4 °F 29.77 in South 5 mph 8 mph 35% 0 in 0.00 W/m2
21:04 55.2 °F 28.7 °F 29.76 in South 7 mph 8 mph 36% 0 in 0.00 W/m2
21:09 55.1 °F 28.6 °F 29.76 in South 6 mph 9 mph 36% 0 in 0.00 W/m2
21:14 54.9 °F 28.4 °F 29.76 in South 6 mph 9 mph 36% 0 in 0.00 W/m2
21:19 54.7 °F 28.9 °F 29.76 in South 7 mph 9 mph 37% 0 in 0.00 W/m2
21:24 54.4 °F 28.6 °F 29.76 in South 7 mph 9 mph 37% 0 in 0.00 W/m2
21:29 54.4 °F 28 °F 29.76 in SSE 5 mph 9 mph 36% 0 in 0.00 W/m2
21:34 54.2 °F 28.5 °F 29.76 in South 7 mph 10 mph 37% 0 in 0.00 W/m2
21:39 54.1 °F 28.4 °F 29.76 in South 8 mph 10 mph 37% 0 in 0.00 W/m2
21:44 54.1 °F 29 °F 29.76 in South 7 mph 10 mph 38% 0 in 0.00 W/m2
21:49 54 °F 28.3 °F 29.77 in SSE 6 mph 10 mph 37% 0 in 0.00 W/m2
21:54 53.7 °F 28.7 °F 29.77 in SSE 6 mph 10 mph 38% 0 in 0.00 W/m2
21:59 53.5 °F 28.5 °F 29.77 in South 8 mph 10 mph 38% 0 in 0.00 W/m2
22:04 53.4 °F 28.4 °F 29.77 in South 6 mph 10 mph 38% 0 in 0.00 W/m2
22:09 53.3 °F 28.3 °F 29.77 in South 6 mph 10 mph 38% 0 in 0.00 W/m2
22:14 53.1 °F 28.1 °F 29.77 in South 8 mph 10 mph 38% 0 in 0.00 W/m2
22:19 52.8 °F 28.5 °F 29.77 in South 5 mph 9 mph 39% 0 in 0.00 W/m2
22:24 52.4 °F 28.8 °F 29.77 in South 7 mph 9 mph 40% 0 in 0.00 W/m2
22:29 52.1 °F 28.5 °F 29.77 in South 7 mph 9 mph 40% 0 in 0.00 W/m2
22:34 51.9 °F 28.3 °F 29.76 in SSE 6 mph 10 mph 40% 0 in 0.00 W/m2
22:39 51.6 °F 28.6 °F 29.76 in South 6 mph 10 mph 41% 0 in 0.00 W/m2
22:44 51.4 °F 28.5 °F 29.76 in South 8 mph 10 mph 41% 0 in 0.00 W/m2
22:49 51.5 °F 29.1 °F 29.76 in South 7 mph 10 mph 42% 0 in 0.00 W/m2
22:54 51.4 °F 29.1 °F 29.76 in SSW 7 mph 10 mph 42% 0 in 0.00 W/m2
22:59 51.1 °F 29.9 °F 29.76 in South 8 mph 10 mph 44% 0 in 0.00 W/m2
23:04 50.8 °F 29.6 °F 29.76 in South 7 mph 10 mph 44% 0 in 0.00 W/m2
23:09 50.6 °F 29.5 °F 29.76 in South 7 mph 11 mph 44% 0 in 0.00 W/m2
23:14 50.4 °F 29.3 °F 29.76 in South 7 mph 11 mph 44% 0 in 0.00 W/m2
23:19 50.3 °F 29.2 °F 29.76 in South 9 mph 12 mph 44% 0 in 0.00 W/m2
23:24 50.3 °F 29.2 °F 29.76 in South 9 mph 12 mph 44% 0 in 0.00 W/m2
23:29 50 °F 29.5 °F 29.76 in South 7 mph 13 mph 45% 0 in 0.00 W/m2
23:34 49.9 °F 29.4 °F 29.75 in South 11 mph 13 mph 45% 0 in 0.00 W/m2
23:39 49.9 °F 28.8 °F 29.75 in South 11 mph 13 mph 44% 0 in 0.00 W/m2
23:44 50.1 °F 28.4 °F 29.75 in South 11 mph 13 mph 43% 0 in 0.00 W/m2
23:49 50.1 °F 28.4 °F 29.75 in South 12 mph 13 mph 43% 0 in 0.00 W/m2
23:54 50 °F 28.9 °F 29.75 in SSW 10 mph 14 mph 44% 0 in 0.00 W/m2
23:59 49.8 °F 28.7 °F 29.75 in South 8 mph 14 mph 44% 0 in 0.00 W/m2
Bismarck, North Dakota, USA
Compliments of Weather Underground - 4 mb